Time;durP1;ratioP1;P1;durP2;ratioP2;P2;SDS_P1;SDS_P2;PMS_P1;PMS_P2;Temp;Humidity;BMP_temperature;BMP_pressure;BME280_temperature;BME280_humidity;BME280_pressure;Samples;Min_cycle;Max_cycle;Signal;HPM_P1;HPM_P2
2022/06/19 00:00:44;;;;;;;23.50;5.50;;;19.70;67.40;;;;;;4989590;28;20471;-61
2022/06/19 00:03:15;;;;;;;17.60;5.33;;;19.60;68.00;;;;;;5001280;28;20411;-61
2022/06/19 00:05:41;;;;;;;21.70;5.53;;;19.60;68.10;;;;;;4993179;28;20187;-63
2022/06/19 00:08:07;;;;;;;14.70;5.53;;;19.60;68.60;;;;;;4980621;28;20432;-61
2022/06/19 00:10:32;;;;;;;22.90;5.23;;;19.60;69.00;;;;;;4990924;28;20789;-61
2022/06/19 00:12:58;;;;;;;18.00;5.97;;;19.60;70.10;;;;;;4986566;28;20655;-61
2022/06/19 00:15:24;;;;;;;15.33;6.13;;;19.50;70.40;;;;;;4975632;28;20201;-62
2022/06/19 00:17:49;;;;;;;13.80;5.57;;;19.50;70.40;;;;;;5002373;28;20181;-62
2022/06/19 00:20:15;;;;;;;17.23;6.27;;;19.50;71.10;;;;;;4999532;28;20635;-62
2022/06/19 00:22:41;;;;;;;18.37;6.63;;;19.40;71.10;;;;;;4986861;28;20352;-62
2022/06/19 00:25:08;;;;;;;18.23;6.53;;;19.40;72.50;;;;;;4986179;28;20287;-61
2022/06/19 00:27:39;;;;;;;14.37;5.83;;;19.40;72.10;;;;;;4985284;28;20185;-63
2022/06/19 00:30:08;;;;;;;14.70;6.80;;;19.40;72.30;;;;;;4985386;28;20460;-62
2022/06/19 00:32:34;;;;;;;19.50;6.03;;;19.30;72.40;;;;;;4980985;28;20470;-62
2022/06/19 00:34:59;;;;;;;16.20;5.97;;;19.30;73.60;;;;;;4993214;28;20444;-62
2022/06/19 00:37:25;;;;;;;15.53;5.47;;;19.30;74.10;;;;;;5005536;28;20184;-61
2022/06/19 00:39:51;;;;;;;16.83;5.67;;;19.20;74.50;;;;;;4985808;28;20223;-62
2022/06/19 00:42:16;;;;;;;19.07;5.97;;;19.20;75.10;;;;;;4972958;28;20178;-62
2022/06/19 00:44:43;;;;;;;18.73;5.67;;;19.10;75.30;;;;;;4985832;28;20824;-61
2022/06/19 00:47:11;;;;;;;14.00;4.73;;;19.10;76.00;;;;;;4989518;28;20211;-61
2022/06/19 00:49:45;;;;;;;16.73;5.30;;;19.00;76.80;;;;;;4980852;28;20456;-63
2022/06/19 00:52:29;;;;;;;22.20;5.40;;;18.90;77.40;;;;;;4965123;28;20444;-62
2022/06/19 00:55:13;;;;;;;16.63;5.30;;;18.90;78.00;;;;;;4982404;28;20472;-62
2022/06/19 00:57:42;;;;;;;15.10;6.00;;;18.90;78.50;;;;;;4993858;28;20486;-61
2022/06/19 01:00:13;;;;;;;29.80;6.13;;;18.80;78.90;;;;;;4980987;28;20479;-62
2022/06/19 01:02:41;;;;;;;23.93;5.77;;;18.80;79.60;;;;;;5005072;28;20852;-61
2022/06/19 01:05:10;;;;;;;14.17;5.00;;;18.80;79.60;;;;;;4988739;28;21111;-61
2022/06/19 01:07:36;;;;;;;17.50;6.03;;;18.80;79.80;;;;;;4987634;28;20442;-61
2022/06/19 01:10:03;;;;;;;14.37;6.10;;;18.80;80.00;;;;;;4986130;28;20965;-61
2022/06/19 01:12:29;;;;;;;14.43;5.47;;;18.80;80.80;;;;;;4978785;28;20519;-61
2022/06/19 01:15:02;;;;;;;16.57;5.60;;;18.70;81.10;;;;;;4994719;28;20466;-61
2022/06/19 01:17:29;;;;;;;13.60;5.13;;;18.70;81.70;;;;;;4999381;28;20524;-62
2022/06/19 01:19:55;;;;;;;19.07;5.40;;;18.70;82.70;;;;;;4983847;28;20538;-61
2022/06/19 01:22:30;;;;;;;21.80;5.70;;;18.70;83.70;;;;;;4987230;28;20775;-61
2022/06/19 01:25:13;;;;;;;15.10;6.13;;;18.60;84.40;;;;;;4981563;28;20235;-61
2022/06/19 01:30:39;;;;;;;15.37;6.20;;;18.60;84.10;;;;;;4981525;28;20482;-62
2022/06/19 01:33:09;;;;;;;18.90;6.87;;;18.60;84.60;;;;;;4987864;28;20439;-61
2022/06/19 01:35:37;;;;;;;24.20;6.10;;;18.50;84.40;;;;;;4998045;28;20443;-62
2022/06/19 01:38:10;;;;;;;14.80;6.53;;;18.50;84.80;;;;;;4989899;28;20507;-61
2022/06/19 01:40:36;;;;;;;20.77;6.20;;;18.50;85.50;;;;;;4995439;28;20477;-61
2022/06/19 01:43:03;;;;;;;16.97;6.20;;;18.40;85.40;;;;;;4996671;28;20424;-61
2022/06/19 01:45:30;;;;;;;20.47;6.33;;;18.40;85.80;;;;;;4980468;28;20445;-62
2022/06/19 01:47:56;;;;;;;22.20;5.90;;;18.40;87.00;;;;;;4986138;28;20455;-61
2022/06/19 01:50:27;;;;;;;14.73;5.30;;;18.30;87.30;;;;;;4994370;28;20972;-61
2022/06/19 01:53:01;;;;;;;11.57;4.83;;;18.30;87.80;;;;;;5004384;28;20199;-61
2022/06/19 01:55:28;;;;;;;21.77;5.80;;;18.30;88.70;;;;;;4980057;28;20456;-61
2022/06/19 01:57:57;;;;;;;17.60;5.80;;;18.30;88.10;;;;;;4980477;28;20470;-61
2022/06/19 02:00:26;;;;;;;16.10;5.40;;;18.20;88.40;;;;;;4985712;28;20488;-60
2022/06/19 02:03:01;;;;;;;20.43;5.93;;;18.20;88.60;;;;;;4986944;28;20524;-62
2022/06/19 02:05:27;;;;;;;18.33;5.73;;;18.20;89.40;;;;;;4988424;28;20575;-62
2022/06/19 02:07:53;;;;;;;13.23;5.60;;;18.10;90.30;;;;;;4992326;28;20907;-61
2022/06/19 02:10:19;;;;;;;21.37;5.80;;;18.10;90.90;;;;;;4980448;28;20201;-61
2022/06/19 02:12:45;;;;;;;22.73;6.53;;;18.10;90.70;;;;;;4991789;28;20902;-62
2022/06/19 02:15:12;;;;;;;14.70;5.90;;;18.00;90.60;;;;;;4991898;28;20448;-61
2022/06/19 02:17:48;;;;;;;19.63;6.00;;;18.00;90.50;;;;;;4988723;28;20200;-61
2022/06/19 02:20:14;;;;;;;16.57;5.67;;;18.00;90.90;;;;;;4999486;28;20471;-62
2022/06/19 02:22:39;;;;;;;13.93;6.10;;;18.00;91.10;;;;;;4976835;28;20922;-61
2022/06/19 02:25:05;;;;;;;21.13;5.73;;;17.90;91.10;;;;;;4985384;28;20430;-61
2022/06/19 02:27:34;;;;;;;14.30;4.90;;;17.90;91.50;;;;;;4999737;28;20646;-61
2022/06/19 02:30:05;;;;;;;13.83;4.90;;;17.90;91.40;;;;;;5000008;28;20444;-61
2022/06/19 02:32:39;;;;;;;15.60;5.17;;;17.90;91.60;;;;;;5002900;28;20462;-61
2022/06/19 02:35:06;;;;;;;18.67;5.67;;;17.90;91.60;;;;;;4972271;28;20500;-61
2022/06/19 02:37:38;;;;;;;24.63;5.87;;;17.90;91.60;;;;;;4990302;28;20507;-61
2022/06/19 02:40:29;;;;;;;19.50;5.60;;;17.90;92.00;;;;;;4980121;28;20476;-61
2022/06/19 02:42:55;;;;;;;19.50;5.60;;;17.90;92.50;;;;;;4977864;28;20432;-61
2022/06/19 02:45:25;;;;;;;16.80;5.50;;;17.80;92.70;;;;;;4987710;28;20433;-61
2022/06/19 02:47:53;;;;;;;16.53;6.47;;;17.80;93.00;;;;;;5004389;28;20503;-61
2022/06/19 02:50:22;;;;;;;17.63;5.40;;;17.80;93.00;;;;;;4973497;28;20429;-61
2022/06/19 02:52:49;;;;;;;12.80;5.50;;;17.80;93.30;;;;;;4990782;28;20888;-62
2022/06/19 02:55:16;;;;;;;15.43;5.77;;;17.70;93.40;;;;;;4993764;28;20528;-61
2022/06/19 02:57:41;;;;;;;16.40;5.60;;;17.70;93.50;;;;;;4967510;28;20588;-62
2022/06/19 03:00:12;;;;;;;16.47;5.40;;;17.60;93.40;;;;;;4989821;28;21211;-61
2022/06/19 03:02:38;;;;;;;17.83;5.80;;;17.60;93.80;;;;;;5000986;28;20177;-61
2022/06/19 03:05:05;;;;;;;20.23;6.00;;;17.60;94.10;;;;;;4986691;28;20507;-61
2022/06/19 03:07:31;;;;;;;20.07;6.07;;;17.60;94.20;;;;;;4998633;28;20431;-61
2022/06/19 03:09:57;;;;;;;26.83;6.07;;;17.50;94.50;;;;;;4971681;28;20453;-61
2022/06/19 03:12:23;;;;;;;15.47;5.90;;;17.50;94.90;;;;;;4978486;28;20212;-62
2022/06/19 03:14:49;;;;;;;19.53;6.13;;;17.50;95.20;;;;;;4991861;28;20439;-61
2022/06/19 03:17:20;;;;;;;13.70;5.97;;;17.50;94.90;;;;;;4972454;28;20474;-63
2022/06/19 03:19:46;;;;;;;17.60;6.00;;;17.40;94.90;;;;;;4977029;28;20474;-61
2022/06/19 03:22:12;;;;;;;18.83;6.20;;;17.40;95.70;;;;;;4976665;28;20516;-62
2022/06/19 03:24:39;;;;;;;24.23;6.43;;;17.40;95.70;;;;;;4970920;28;20216;-61
2022/06/19 03:27:05;;;;;;;20.00;6.20;;;17.40;95.80;;;;;;4990028;28;20516;-62
2022/06/19 03:29:32;;;;;;;13.20;5.37;;;17.40;95.70;;;;;;4986395;28;20456;-62
2022/06/19 03:31:58;;;;;;;24.93;6.93;;;17.40;96.10;;;;;;4988582;28;21073;-62
2022/06/19 03:34:24;;;;;;;18.80;5.53;;;17.40;96.00;;;;;;4985572;28;20588;-62
2022/06/19 03:36:50;;;;;;;13.97;5.70;;;17.40;95.70;;;;;;4986724;28;20527;-63
2022/06/19 03:39:15;;;;;;;16.80;5.30;;;17.30;95.50;;;;;;4996563;28;20707;-62
2022/06/19 03:41:41;;;;;;;13.30;5.73;;;17.30;96.00;;;;;;4971868;28;20177;-62
2022/06/19 03:44:07;;;;;;;12.40;5.77;;;17.30;95.80;;;;;;4998551;28;20265;-63
2022/06/19 03:46:32;;;;;;;14.17;5.67;;;17.30;95.60;;;;;;4988877;28;20196;-61
2022/06/19 03:48:58;;;;;;;18.13;6.13;;;17.30;95.70;;;;;;5005105;28;20190;-61
2022/06/19 03:51:24;;;;;;;23.00;6.50;;;17.30;96.00;;;;;;4987066;28;20661;-62
2022/06/19 03:53:52;;;;;;;16.30;6.20;;;17.20;96.00;;;;;;4970367;28;20236;-62
2022/06/19 03:56:28;;;;;;;14.40;6.20;;;17.20;96.70;;;;;;4979453;28;20438;-62
2022/06/19 03:58:54;;;;;;;12.10;5.77;;;17.20;96.70;;;;;;4986920;28;20437;-61
2022/06/19 04:01:35;;;;;;;15.13;6.60;;;17.20;96.50;;;;;;4995269;28;20451;-62
2022/06/19 04:04:02;;;;;;;15.23;5.80;;;17.30;96.70;;;;;;4985244;28;20192;-61
2022/06/19 04:06:30;;;;;;;17.57;6.23;;;17.30;96.50;;;;;;5003007;28;21294;-62
2022/06/19 04:08:57;;;;;;;23.40;6.50;;;17.30;96.50;;;;;;4991771;28;20424;-62
2022/06/19 04:11:24;;;;;;;13.67;6.60;;;17.30;96.00;;;;;;4988472;28;20948;-62
2022/06/19 04:13:53;;;;;;;18.03;6.93;;;17.40;96.10;;;;;;4984277;28;20984;-61
2022/06/19 04:16:21;;;;;;;12.00;5.73;;;17.40;96.10;;;;;;4987288;28;20490;-62
2022/06/19 04:18:51;;;;;;;14.00;6.67;;;17.40;96.20;;;;;;4972308;28;20432;-61
2022/06/19 04:21:20;;;;;;;13.70;5.83;;;17.40;96.50;;;;;;4986465;28;20449;-62
2022/06/19 04:23:46;;;;;;;11.77;5.77;;;17.40;96.30;;;;;;4984496;28;20432;-61
2022/06/19 04:26:15;;;;;;;12.03;6.17;;;17.50;96.00;;;;;;4994116;28;20478;-62
2022/06/19 04:28:41;;;;;;;13.50;6.00;;;17.50;95.70;;;;;;4985857;28;20464;-61
2022/06/19 04:31:07;;;;;;;20.33;6.03;;;17.50;96.20;;;;;;4993682;28;20551;-61
2022/06/19 04:33:37;;;;;;;26.13;6.23;;;17.60;95.90;;;;;;4990486;28;20938;-60
2022/06/19 04:36:03;;;;;;;14.07;5.90;;;17.60;96.30;;;;;;4967922;28;20781;-61
2022/06/19 04:38:29;;;;;;;25.10;7.03;;;17.70;96.50;;;;;;4992552;28;20425;-62
2022/06/19 04:40:56;;;;;;;23.57;6.60;;;17.70;96.00;;;;;;4987193;28;20459;-62
2022/06/19 04:43:21;;;;;;;17.27;5.60;;;17.80;96.30;;;;;;4987502;28;20562;-62
2022/06/19 04:45:47;;;;;;;10.83;6.07;;;17.80;95.50;;;;;;4994700;28;20426;-62
2022/06/19 04:48:13;;;;;;;17.17;6.40;;;17.80;95.80;;;;;;4988707;28;20177;-63
2022/06/19 04:50:39;;;;;;;19.57;6.60;;;17.90;95.80;;;;;;5003380;28;20667;-61
2022/06/19 04:53:05;;;;;;;22.03;6.73;;;17.90;95.50;;;;;;4993197;28;20428;-62
2022/06/19 04:55:31;;;;;;;19.80;6.80;;;17.90;95.30;;;;;;4989664;28;20432;-62
2022/06/19 04:58:02;;;;;;;13.17;6.63;;;18.00;96.10;;;;;;4989797;28;20181;-62
2022/06/19 05:00:28;;;;;;;13.73;6.00;;;18.00;96.00;;;;;;4991422;28;21069;-63
2022/06/19 05:02:53;;;;;;;18.83;7.03;;;18.00;96.50;;;;;;5001286;28;20531;-62
2022/06/19 05:05:21;;;;;;;20.10;6.40;;;18.00;96.40;;;;;;4970224;28;20215;-62
2022/06/19 05:07:47;;;;;;;16.13;5.83;;;18.00;95.90;;;;;;5001239;28;20172;-61
2022/06/19 05:10:13;;;;;;;16.17;5.90;;;17.90;95.10;;;;;;4998137;28;20459;-62
2022/06/19 05:12:39;;;;;;;18.70;6.27;;;18.00;95.00;;;;;;4979910;28;20432;-62
2022/06/19 05:15:05;;;;;;;18.40;6.10;;;18.00;94.90;;;;;;4981462;28;20510;-63
2022/06/19 05:17:31;;;;;;;16.77;6.07;;;18.10;94.70;;;;;;4987378;28;20177;-63
2022/06/19 05:19:57;;;;;;;22.37;6.43;;;18.20;94.00;;;;;;4977171;28;20471;-62
2022/06/19 05:22:23;;;;;;;14.17;6.60;;;18.40;94.20;;;;;;4991706;28;20424;-62
2022/06/19 05:24:48;;;;;;;13.40;6.37;;;18.40;93.80;;;;;;4982506;28;20280;-62
2022/06/19 05:27:14;;;;;;;19.40;6.20;;;18.50;93.50;;;;;;4986251;28;20184;-61
2022/06/19 05:29:40;;;;;;;18.47;6.80;;;18.60;93.10;;;;;;4974502;28;20285;-61
2022/06/19 05:32:07;;;;;;;12.33;5.40;;;18.70;92.50;;;;;;4991524;28;20325;-61
2022/06/19 05:34:34;;;;;;;13.70;6.50;;;18.80;90.50;;;;;;4988555;28;20432;-62
2022/06/19 05:37:00;;;;;;;15.20;5.40;;;18.80;90.00;;;;;;4988353;28;20452;-61
2022/06/19 05:39:26;;;;;;;18.63;6.07;;;18.90;88.80;;;;;;4997936;28;20467;-62
2022/06/19 05:41:52;;;;;;;23.47;5.10;;;19.00;88.70;;;;;;4984293;28;20433;-62
2022/06/19 05:44:18;;;;;;;18.57;5.93;;;19.10;88.70;;;;;;4986849;28;20240;-62
2022/06/19 05:46:46;;;;;;;18.87;5.80;;;19.20;88.40;;;;;;4990990;28;20435;-62
2022/06/19 05:49:12;;;;;;;18.03;5.83;;;19.30;84.50;;;;;;4984631;28;20538;-62
2022/06/19 05:51:37;;;;;;;12.03;5.57;;;19.30;83.50;;;;;;4981164;28;20430;-63
2022/06/19 05:54:03;;;;;;;17.23;5.93;;;19.40;85.00;;;;;;4981616;28;20193;-62
2022/06/19 05:56:29;;;;;;;11.67;5.67;;;19.50;83.30;;;;;;4991784;28;20178;-61
2022/06/19 05:58:55;;;;;;;18.63;5.90;;;19.70;83.70;;;;;;4994332;28;20783;-62
2022/06/19 06:01:21;;;;;;;15.70;6.20;;;19.80;84.20;;;;;;4989378;28;20208;-62
2022/06/19 06:03:47;;;;;;;18.30;6.53;;;20.00;84.50;;;;;;5003406;28;20404;-62
2022/06/19 06:06:23;;;;;;;13.23;6.03;;;20.10;84.40;;;;;;4976400;28;20503;-61
2022/06/19 06:08:49;;;;;;;16.50;5.63;;;20.30;82.10;;;;;;4980159;28;20165;-62
2022/06/19 06:11:15;;;;;;;13.93;5.77;;;20.30;79.60;;;;;;4991106;28;20472;-62
2022/06/19 06:13:41;;;;;;;14.77;6.10;;;20.50;80.60;;;;;;4981277;28;20488;-63
2022/06/19 06:16:07;;;;;;;21.80;5.87;;;20.60;78.50;;;;;;4985876;28;20439;-63
2022/06/19 06:18:33;;;;;;;15.10;5.40;;;20.70;76.20;;;;;;4997640;28;20653;-62
2022/06/19 06:21:10;;;;;;;12.57;5.17;;;20.80;75.20;;;;;;5000746;28;20467;-61
2022/06/19 06:23:35;;;;;;;23.60;5.70;;;20.90;74.60;;;;;;4991665;28;20487;-62
2022/06/19 06:26:03;;;;;;;24.00;6.70;;;21.00;74.20;;;;;;4999441;28;20412;-61
2022/06/19 06:28:30;;;;;;;19.33;5.87;;;21.10;73.90;;;;;;4997670;28;20924;-63
2022/06/19 06:30:56;;;;;;;9.67;5.00;;;21.30;73.10;;;;;;4990107;28;20768;-63
2022/06/19 06:33:22;;;;;;;12.47;5.20;;;21.40;72.90;;;;;;4987087;28;20527;-63
2022/06/19 06:35:48;;;;;;;11.93;4.80;;;21.60;72.10;;;;;;4991581;28;20539;-63
2022/06/19 06:38:13;;;;;;;13.13;5.47;;;21.70;69.80;;;;;;4972691;28;20216;-62
2022/06/19 06:40:39;;;;;;;12.33;5.90;;;21.80;70.00;;;;;;5000082;28;20462;-61
2022/06/19 06:43:05;;;;;;;22.00;5.20;;;21.80;70.60;;;;;;4991134;28;20247;-61
2022/06/19 06:45:31;;;;;;;18.80;5.70;;;21.80;71.10;;;;;;4985565;28;20213;-62
2022/06/19 06:47:56;;;;;;;16.53;5.33;;;21.90;71.40;;;;;;5002565;28;20776;-62
2022/06/19 06:50:22;;;;;;;16.00;5.60;;;22.00;70.10;;;;;;4996554;28;20204;-62
2022/06/19 06:52:48;;;;;;;15.13;5.00;;;22.20;69.10;;;;;;4988840;28;20185;-61
2022/06/19 06:55:15;;;;;;;14.07;5.90;;;22.30;68.50;;;;;;4987596;28;20479;-61
2022/06/19 06:57:41;;;;;;;14.57;5.90;;;22.50;68.50;;;;;;4985158;28;20181;-62
2022/06/19 07:00:11;;;;;;;18.07;6.43;;;22.70;68.00;;;;;;4990779;28;20471;-61
2022/06/19 07:02:36;;;;;;;20.00;6.00;;;22.80;66.70;;;;;;4997622;28;20396;-62
2022/06/19 07:05:02;;;;;;;17.93;4.97;;;23.00;65.80;;;;;;4986898;28;20486;-61
2022/06/19 07:07:28;;;;;;;8.53;5.00;;;23.10;65.10;;;;;;4994680;28;20180;-62
2022/06/19 07:09:53;;;;;;;19.27;5.60;;;23.40;65.00;;;;;;4994192;28;20194;-62
2022/06/19 07:12:19;;;;;;;14.20;5.37;;;23.50;64.00;;;;;;4982501;28;20324;-62
2022/06/19 07:14:45;;;;;;;20.23;5.57;;;23.50;63.60;;;;;;4982917;28;20170;-64
2022/06/19 07:17:11;;;;;;;23.53;6.07;;;23.60;64.10;;;;;;4985573;28;20189;-64
2022/06/19 07:19:36;;;;;;;16.80;5.60;;;23.60;64.00;;;;;;4980630;28;20212;-63
2022/06/19 07:22:02;;;;;;;23.73;7.20;;;23.50;64.30;;;;;;4998048;28;20672;-63
2022/06/19 07:24:28;;;;;;;13.40;5.43;;;23.60;64.70;;;;;;4999677;28;20173;-63
2022/06/19 07:26:53;;;;;;;17.77;5.70;;;23.60;64.80;;;;;;4996850;28;20671;-62
2022/06/19 07:29:19;;;;;;;14.63;5.33;;;23.70;64.20;;;;;;4991178;28;20197;-62
2022/06/19 07:31:44;;;;;;;14.60;5.40;;;23.90;64.60;;;;;;4989656;28;20176;-63
2022/06/19 07:34:10;;;;;;;18.00;5.17;;;24.00;64.00;;;;;;4987510;28;20188;-63
2022/06/19 07:36:36;;;;;;;23.27;5.80;;;24.20;62.50;;;;;;4987743;28;20251;-63
2022/06/19 07:39:04;;;;;;;19.60;6.00;;;24.40;62.30;;;;;;4992468;28;20526;-63
2022/06/19 07:41:29;;;;;;;13.20;4.73;;;24.50;61.00;;;;;;4997531;28;20183;-63
2022/06/19 07:43:56;;;;;;;19.20;5.50;;;24.70;59.80;;;;;;4988820;28;20436;-62
2022/06/19 07:46:23;;;;;;;20.23;6.57;;;24.80;59.30;;;;;;4962265;28;20231;-63
2022/06/19 07:51:34;;;;;;;23.50;7.00;;;25.10;58.90;;;;;;4989349;28;20962;-62
2022/06/19 07:54:01;;;;;;;18.13;6.10;;;25.30;59.60;;;;;;5003481;28;20439;-63
2022/06/19 07:56:27;;;;;;;25.90;6.07;;;25.40;58.60;;;;;;4989397;28;20408;-63
2022/06/19 07:58:53;;;;;;;16.80;6.13;;;25.50;57.50;;;;;;4980237;28;20432;-60
2022/06/19 08:01:18;;;;;;;16.23;5.50;;;25.60;57.30;;;;;;4981977;28;20464;-59
2022/06/19 08:03:44;;;;;;;16.63;6.03;;;25.70;57.40;;;;;;4980021;28;20173;-59
2022/06/19 08:06:13;;;;;;;20.23;6.60;;;25.90;57.50;;;;;;4983266;28;20230;-57
2022/06/19 08:08:39;;;;;;;26.57;6.63;;;26.00;57.10;;;;;;4978154;28;20268;-59
2022/06/19 08:11:04;;;;;;;19.80;5.90;;;26.20;56.10;;;;;;4981935;28;20531;-59
2022/06/19 08:13:32;;;;;;;15.70;6.47;;;26.30;55.50;;;;;;4976277;28;20200;-58
2022/06/19 08:16:02;;;;;;;23.60;5.93;;;26.40;54.90;;;;;;4982477;28;20703;-58
2022/06/19 08:18:28;;;;;;;21.87;6.00;;;26.50;54.90;;;;;;4989474;28;21556;-59
2022/06/19 08:20:54;;;;;;;17.23;5.70;;;26.50;55.00;;;;;;4978911;28;20514;-58
2022/06/19 08:23:20;;;;;;;18.20;6.20;;;26.60;55.20;;;;;;4980543;28;21023;-59
2022/06/19 08:25:47;;;;;;;17.93;7.23;;;26.80;55.10;;;;;;4984567;28;20176;-59
2022/06/19 08:31:22;;;;;;;21.50;6.60;;;27.00;54.70;;;;;;4920319;29;20455;-60
2022/06/19 08:33:48;;;;;;;23.27;7.57;;;27.10;55.10;;;;;;4925271;29;20607;-58
2022/06/19 08:36:14;;;;;;;27.57;6.83;;;27.20;54.00;;;;;;4948626;28;20216;-59
2022/06/19 08:38:47;;;;;;;22.33;7.47;;;27.20;53.40;;;;;;4981656;28;20807;-58
2022/06/19 08:41:22;;;;;;;15.80;7.90;;;27.20;53.60;;;;;;4980051;28;20624;-57
2022/06/19 08:44:12;;;;;;;21.77;7.20;;;27.30;54.10;;;;;;4984504;28;20172;-58
2022/06/19 08:47:12;;;;;;;17.43;7.23;;;27.30;54.20;;;;;;4989777;28;20174;-58
2022/06/19 08:49:49;;;;;;;22.30;7.20;;;27.40;54.20;;;;;;4981542;28;20200;-59
2022/06/19 08:52:21;;;;;;;20.30;7.50;;;27.60;53.40;;;;;;4985293;28;20520;-58
2022/06/19 08:55:28;;;;;;;29.83;8.90;;;27.70;53.60;;;;;;4985494;28;20263;-58
2022/06/19 08:58:19;;;;;;;20.33;7.50;;;27.80;51.50;;;;;;4973265;28;20184;-59
2022/06/19 09:01:06;;;;;;;20.77;7.83;;;27.90;51.90;;;;;;4977191;28;20220;-60
2022/06/19 09:06:56;;;;;;;22.93;7.70;;;28.10;51.60;;;;;;4984545;28;20227;-60
2022/06/19 09:09:32;;;;;;;16.17;8.63;;;28.30;51.10;;;;;;4984726;28;20267;-60
2022/06/19 09:12:22;;;;;;;21.43;8.20;;;28.40;51.60;;;;;;4985302;28;20188;-60
2022/06/19 09:15:09;;;;;;;17.23;7.90;;;28.50;51.00;;;;;;4986720;28;20666;-61
2022/06/19 09:17:42;;;;;;;17.13;8.67;;;28.70;50.70;;;;;;4977813;28;20312;-58
2022/06/19 09:20:21;;;;;;;22.03;8.80;;;28.80;50.60;;;;;;4973119;28;20213;-59
2022/06/19 09:23:11;;;;;;;14.83;7.80;;;28.90;50.70;;;;;;4981161;28;20231;-59
2022/06/19 09:25:58;;;;;;;18.17;8.15;;;29.00;49.70;;;;;;4975559;28;20185;-59
2022/06/19 09:28:45;;;;;;;17.67;8.48;;;29.10;48.70;;;;;;4975557;28;20235;-59
2022/06/19 09:31:17;;;;;;;26.48;8.68;;;29.10;48.00;;;;;;4977304;28;20197;-58
2022/06/19 09:33:42;;;;;;;18.35;8.38;;;29.30;48.40;;;;;;4975405;28;20184;-59
2022/06/19 09:36:08;;;;;;;23.33;8.98;;;29.40;48.30;;;;;;4976322;28;20741;-60
2022/06/19 09:38:48;;;;;;;19.48;8.10;;;29.50;48.00;;;;;;4978408;28;20184;-59
2022/06/19 09:41:21;;;;;;;17.25;8.70;;;29.60;48.10;;;;;;4971629;28;20212;-62
2022/06/19 09:44:07;;;;;;;16.67;8.80;;;29.70;48.30;;;;;;4979414;28;20169;-60
2022/06/19 09:46:45;;;;;;;21.60;9.23;;;29.70;48.00;;;;;;4982311;28;20197;-59
2022/06/19 09:49:24;;;;;;;18.90;8.48;;;29.70;48.60;;;;;;4982397;28;20200;-60
2022/06/19 09:51:58;;;;;;;28.30;9.40;;;29.90;48.20;;;;;;4977941;28;20177;-60
2022/06/19 09:54:53;;;;;;;19.35;9.32;;;29.90;47.80;;;;;;4982524;28;20379;-62
2022/06/19 09:57:36;;;;;;;14.30;8.45;;;30.00;48.40;;;;;;4980090;28;20208;-62
2022/06/19 10:00:13;;;;;;;20.50;8.98;;;30.10;48.00;;;;;;4975572;28;20278;-63
2022/06/19 10:02:54;;;;;;;22.00;9.02;;;30.20;48.00;;;;;;4979409;28;20173;-62
2022/06/19 10:05:34;;;;;;;16.60;9.20;;;30.40;47.90;;;;;;4981139;28;20177;-62
2022/06/19 10:08:09;;;;;;;17.33;9.68;;;30.60;47.50;;;;;;4978804;28;20200;-63
2022/06/19 10:10:57;;;;;;;18.92;8.77;;;30.70;46.10;;;;;;4976076;28;20216;-62
2022/06/19 10:13:29;;;;;;;15.18;8.65;;;30.70;46.10;;;;;;4976793;28;20592;-59
2022/06/19 10:15:56;;;;;;;15.15;9.13;;;30.80;46.50;;;;;;4976784;28;20187;-61
2022/06/19 10:18:35;;;;;;;18.42;9.23;;;30.90;45.90;;;;;;4981369;28;20182;-60
2022/06/19 10:22:13;;;;;;;14.73;9.02;;;31.00;44.70;;;;;;4978670;28;20201;-61
2022/06/19 10:24:10;;;;;;;18.55;9.07;;;31.00;44.90;;;;;;4986127;28;20205;-61
2022/06/19 10:26:45;;;;;;;30.80;8.95;;;31.20;44.90;;;;;;4996515;28;20185;-61
2022/06/19 10:29:23;;;;;;;19.13;8.25;;;31.30;44.50;;;;;;4981585;28;20185;-62
2022/06/19 10:31:59;;;;;;;15.40;8.18;;;31.40;43.90;;;;;;4995593;28;20628;-63
2022/06/19 10:35:25;;;;;;;20.40;8.45;;;31.60;43.80;;;;;;4975710;28;20184;-62
2022/06/19 10:38:09;;;;;;;19.45;9.50;;;31.80;43.00;;;;;;4955969;28;20176;-61
2022/06/19 10:40:56;;;;;;;11.43;8.63;;;31.90;42.70;;;;;;4948959;28;20226;-62
2022/06/19 10:43:51;;;;;;;27.10;9.15;;;32.00;43.10;;;;;;4971648;28;20192;-61
2022/06/19 10:46:17;;;;;;;20.40;9.52;;;32.00;42.50;;;;;;4976698;28;20199;-60
2022/06/19 10:48:45;;;;;;;30.50;8.93;;;32.00;42.90;;;;;;4991412;28;20247;-61
2022/06/19 10:51:26;;;;;;;19.23;8.68;;;32.00;43.40;;;;;;4989393;28;20217;-61
2022/06/19 10:54:18;;;;;;;26.58;9.38;;;32.00;42.50;;;;;;4983527;28;20200;-61
2022/06/19 10:57:17;;;;;;;17.90;9.73;;;32.00;43.40;;;;;;4990360;28;20207;-61
2022/06/19 10:59:43;;;;;;;16.67;9.23;;;32.20;44.20;;;;;;4987451;28;20208;-61
2022/06/19 11:05:08;;;;;;;15.32;8.15;;;32.50;42.10;;;;;;4978772;28;20265;-61
2022/06/19 11:07:33;;;;;;;16.10;7.75;;;32.60;39.70;;;;;;5000579;28;20249;-61
2022/06/19 11:10:08;;;;;;;14.70;7.65;;;32.70;37.60;;;;;;4998788;28;20654;-61
2022/06/19 11:12:42;;;;;;;18.45;8.65;;;32.80;38.50;;;;;;4995427;28;20192;-61
2022/06/19 11:15:18;;;;;;;13.02;8.25;;;32.90;38.60;;;;;;5005202;28;20172;-61
2022/06/19 11:17:44;;;;;;;14.30;7.38;;;33.10;37.70;;;;;;4998941;28;20182;-61
2022/06/19 11:20:30;;;;;;;19.40;7.82;;;33.10;35.70;;;;;;4995308;28;20636;-61
2022/06/19 11:23:05;;;;;;;15.55;8.32;;;33.10;35.60;;;;;;4995805;28;20186;-61
2022/06/19 11:25:38;;;;;;;16.33;7.90;;;33.10;36.10;;;;;;4989616;28;20184;-61
2022/06/19 11:28:15;;;;;;;23.30;7.63;;;33.20;36.50;;;;;;4987071;28;20176;-61
2022/06/19 11:31:06;;;;;;;23.23;7.70;;;33.30;35.40;;;;;;4994071;28;20703;-61
2022/06/19 11:33:35;;;;;;;15.07;7.88;;;33.40;34.30;;;;;;4988895;28;20198;-61
2022/06/19 11:36:06;;;;;;;26.00;8.00;;;33.40;33.20;;;;;;4986280;28;20187;-61
2022/06/19 11:38:49;;;;;;;16.10;8.10;;;33.50;33.40;;;;;;4989522;28;20635;-61
2022/06/19 11:41:27;;;;;;;18.67;7.32;;;33.50;33.00;;;;;;4994933;28;20225;-62
2022/06/19 11:44:28;;;;;;;25.17;7.43;;;33.60;32.70;;;;;;4998022;28;20180;-61
2022/06/19 11:46:56;;;;;;;17.48;7.05;;;33.80;33.00;;;;;;4957579;28;20208;-61
2022/06/19 11:49:37;;;;;;;20.20;7.60;;;33.90;32.60;;;;;;4982424;28;20219;-61
2022/06/19 11:52:19;;;;;;;14.30;7.63;;;34.00;32.90;;;;;;4986663;28;20180;-61
2022/06/19 11:54:50;;;;;;;24.17;6.90;;;34.10;33.60;;;;;;4979267;28;20682;-61
2022/06/19 11:57:33;;;;;;;20.42;6.95;;;34.20;32.90;;;;;;4983307;28;20679;-62
2022/06/19 12:00:05;;;;;;;21.25;6.88;;;34.30;32.80;;;;;;4989891;28;20208;-61
2022/06/19 12:02:37;;;;;;;23.25;6.82;;;34.40;32.90;;;;;;4995233;28;20182;-61
2022/06/19 12:05:06;;;;;;;19.77;7.57;;;34.50;32.30;;;;;;4985496;28;20261;-61
2022/06/19 12:07:36;;;;;;;21.50;7.18;;;34.60;31.80;;;;;;4994273;28;20548;-61
2022/06/19 12:10:19;;;;;;;18.00;7.40;;;34.60;33.30;;;;;;4988099;28;20203;-61
2022/06/19 12:12:58;;;;;;;19.40;6.65;;;34.80;32.80;;;;;;4989292;28;20562;-61
2022/06/19 12:15:34;;;;;;;21.15;7.50;;;35.00;32.90;;;;;;4995788;28;20680;-61
2022/06/19 12:18:02;;;;;;;20.17;7.70;;;35.10;32.00;;;;;;5002700;28;20179;-62
2022/06/19 12:20:31;;;;;;;19.15;7.00;;;35.30;33.00;;;;;;4977016;28;20604;-61
2022/06/19 12:23:00;;;;;;;19.42;7.78;;;35.30;30.30;;;;;;4993518;28;20215;-61
2022/06/19 12:25:35;;;;;;;12.38;6.22;;;35.30;31.40;;;;;;4987599;28;20180;-61
2022/06/19 12:28:34;;;;;;;19.92;7.75;;;35.30;30.80;;;;;;4973582;28;20497;-61
2022/06/19 12:31:11;;;;;;;16.80;7.20;;;35.40;30.70;;;;;;4984435;28;20359;-61
2022/06/19 12:33:45;;;;;;;20.52;7.45;;;35.40;30.00;;;;;;4999446;28;20260;-61
2022/06/19 12:36:20;;;;;;;16.77;6.85;;;35.40;30.50;;;;;;4990171;28;20657;-61
2022/06/19 12:38:47;;;;;;;21.55;7.25;;;35.50;31.30;;;;;;4996967;28;20207;-61
2022/06/19 12:41:34;;;;;;;23.33;7.38;;;35.50;30.10;;;;;;4992151;28;20213;-61
2022/06/19 12:44:03;;;;;;;29.10;7.00;;;35.60;30.60;;;;;;4999773;28;20187;-61
2022/06/19 12:47:04;;;;;;;21.13;6.07;;;35.50;30.90;;;;;;5004962;28;20643;-61
2022/06/19 12:49:48;;;;;;;25.63;6.88;;;35.50;31.60;;;;;;4981017;28;20201;-61
2022/06/19 12:52:26;;;;;;;20.98;6.70;;;35.60;30.40;;;;;;4986538;28;20263;-61
2022/06/19 12:54:55;;;;;;;20.92;7.32;;;35.90;30.80;;;;;;4969605;28;20228;-60
2022/06/19 12:57:43;;;;;;;29.48;7.35;;;36.10;30.20;;;;;;4993792;28;20182;-61
2022/06/19 13:00:35;;;;;;;19.50;6.80;;;36.10;29.60;;;;;;4986179;28;20232;-61
2022/06/19 13:03:00;;;;;;;22.08;6.90;;;36.10;29.60;;;;;;4982568;28;20909;-60
2022/06/19 13:05:42;;;;;;;21.40;8.45;;;36.10;29.50;;;;;;4998733;28;20175;-61
2022/06/19 13:08:14;;;;;;;21.60;7.25;;;35.80;30.00;;;;;;5009063;28;20543;-61
2022/06/19 13:10:50;;;;;;;19.88;7.72;;;35.40;31.30;;;;;;4988614;28;20297;-61